Terminal Aerodrome Forecast
Issued by NWS Sterling, VA

Current Version | Previous Version | Graphics & Text | Print | Product List | Glossary On
Versions: 1 2 3 4 5 6 7 8 9 10 11 12 13 14 15 16 17 18 19 20 21 22 23 24 25 26 27
000
FTUS41 KLWX 250200 AAA
TAFDCA
TAF AMD
KDCA 250216Z 2502/2524 20008KT 1SM BR OVC002 WS020/22045KT
      TEMPO 2502/2505 VRB05KT 1/4SM -RA FG
     FM250500 23011KT 3SM -SHRA BR BKN009 OVC015 WS020/26040KT
     FM250900 30014KT P6SM SCT080 BKN120
     FM251400 30014G25KT P6SM SCT040
     FM252100 29008KT P6SM FEW250=

USA.gov is the U.S. government's official web portal to all federal, state and local government web resources and services.